Time;durP1;ratioP1;P1;durP2;ratioP2;P2;SDS_P1;SDS_P2;PMS_P1;PMS_P2;Temp;Humidity;BMP_temperature;BMP_pressure;BME280_temperature;BME280_humidity;BME280_pressure;Samples;Min_cycle;Max_cycle;Signal;HPM_P1;HPM_P2
2021/01/04 00:00:48;;;;;;;2.63;1.40;;;4.70;57.30;;;;;;5025331;28;82740;-73
2021/01/04 00:03:32;;;;;;;3.10;1.60;;;4.60;57.60;;;;;;5027170;28;79745;-72
2021/01/04 00:06:30;;;;;;;5.30;1.83;;;4.60;57.90;;;;;;5027389;28;80137;-75
2021/01/04 00:09:01;;;;;;;4.50;2.05;;;4.60;58.20;;;;;;5026930;28;82700;-71
2021/01/04 00:11:51;;;;;;;4.40;2.00;;;4.50;58.60;;;;;;5007778;28;80556;-72
2021/01/04 00:14:23;;;;;;;5.82;3.03;;;4.40;59.10;;;;;;5008411;28;83085;-71
2021/01/04 00:17:00;;;;;;;7.22;3.33;;;4.40;59.50;;;;;;5027278;28;79595;-73
2021/01/04 00:19:53;;;;;;;5.03;3.03;;;4.30;60.20;;;;;;5026786;28;80575;-72
2021/01/04 00:22:37;;;;;;;7.93;3.33;;;4.30;60.70;;;;;;5026600;28;80256;-73
2021/01/04 00:25:12;;;;;;;7.50;3.45;;;4.20;61.10;;;;;;5007984;28;80947;-72
2021/01/04 00:27:47;;;;;;;6.18;3.17;;;4.10;61.50;;;;;;5026928;28;80706;-74
2021/01/04 00:30:24;;;;;;;6.63;3.33;;;4.00;61.80;;;;;;5026158;28;80498;-73
2021/01/04 00:32:54;;;;;;;6.38;3.50;;;4.00;62.20;;;;;;5008233;28;81416;-71
2021/01/04 00:35:22;;;;;;;5.60;3.40;;;4.00;62.30;;;;;;5026409;28;80549;-74
2021/01/04 00:38:15;;;;;;;7.80;3.40;;;4.00;62.40;;;;;;5025995;28;80679;-71
2021/01/04 00:40:57;;;;;;;8.67;3.23;;;4.00;62.70;;;;;;5025822;28;80888;-73
2021/01/04 00:43:45;;;;;;;8.43;3.13;;;4.00;62.70;;;;;;5026194;28;80684;-74
2021/01/04 00:46:14;;;;;;;9.23;3.50;;;3.90;62.80;;;;;;5026195;28;81030;-71
2021/01/04 00:48:48;;;;;;;6.32;2.85;;;3.90;62.70;;;;;;5028141;28;80908;-74
2021/01/04 00:51:34;;;;;;;5.97;3.25;;;3.90;62.90;;;;;;5030011;28;80326;-73
2021/01/04 00:54:12;;;;;;;6.75;2.95;;;3.90;63.30;;;;;;5010826;28;81497;-74
2021/01/04 00:56:58;;;;;;;7.68;3.80;;;3.80;63.70;;;;;;5030000;28;80783;-75
2021/01/04 00:59:32;;;;;;;4.78;2.85;;;3.80;64.00;;;;;;5023396;28;79974;-75
2021/01/04 01:02:20;;;;;;;6.57;3.22;;;3.80;64.10;;;;;;5029356;28;81159;-73
2021/01/04 01:05:03;;;;;;;9.60;3.05;;;3.70;64.50;;;;;;5029399;28;79796;-72
2021/01/04 01:07:47;;;;;;;7.07;3.22;;;3.70;64.60;;;;;;5029977;28;79812;-75
2021/01/04 01:10:14;;;;;;;6.07;3.28;;;3.70;64.60;;;;;;5011037;28;80867;-75
2021/01/04 01:13:14;;;;;;;10.27;3.78;;;3.60;64.60;;;;;;5011401;28;79853;-73
2021/01/04 01:16:32;;;;;;;6.60;3.53;;;3.70;64.70;;;;;;5028843;28;80745;-75
2021/01/04 01:19:04;;;;;;;7.03;3.30;;;3.70;64.70;;;;;;5015830;28;80902;-76
2021/01/04 01:21:31;;;;;;;4.90;3.00;;;3.70;64.80;;;;;;5029631;28;79755;-72
2021/01/04 01:23:59;;;;;;;4.85;2.85;;;3.70;64.70;;;;;;5011245;28;81166;-74
2021/01/04 01:26:43;;;;;;;6.13;3.15;;;3.80;64.80;;;;;;5011655;28;80066;-74
2021/01/04 01:29:25;;;;;;;5.70;2.63;;;3.80;64.80;;;;;;5029468;28;81112;-71
2021/01/04 01:31:56;;;;;;;7.30;3.45;;;3.90;64.80;;;;;;5029769;28;80537;-76
2021/01/04 01:34:45;;;;;;;6.63;3.70;;;3.90;64.70;;;;;;5010787;28;81458;-73
2021/01/04 01:37:33;;;;;;;5.28;3.40;;;3.90;64.80;;;;;;5029411;28;80291;-71
2021/01/04 01:40:31;;;;;;;6.70;3.50;;;3.90;64.60;;;;;;5029168;28;81169;-71
2021/01/04 01:43:15;;;;;;;6.22;3.28;;;3.80;64.70;;;;;;5029640;28;79826;-72
2021/01/04 01:46:02;;;;;;;6.57;2.70;;;3.80;64.90;;;;;;5029083;28;80763;-73
2021/01/04 01:48:44;;;;;;;8.52;3.33;;;3.70;65.00;;;;;;5029201;28;80231;-71
2021/01/04 01:51:47;;;;;;;7.07;2.90;;;3.70;64.90;;;;;;5028982;28;81317;-70
2021/01/04 01:54:36;;;;;;;5.85;2.92;;;3.60;65.10;;;;;;5029232;28;80279;-74
2021/01/04 01:57:28;;;;;;;4.97;2.90;;;3.60;65.30;;;;;;5028561;28;81105;-73
2021/01/04 02:00:37;;;;;;;9.15;4.20;;;3.40;65.50;;;;;;5028332;28;80275;-71
2021/01/04 02:03:17;;;;;;;8.43;4.00;;;3.40;65.90;;;;;;5017363;28;80544;-72
2021/01/04 02:06:01;;;;;;;8.80;3.25;;;3.30;66.20;;;;;;5028792;28;80258;-71
2021/01/04 02:08:30;;;;;;;5.32;2.80;;;3.30;66.40;;;;;;5028535;28;81033;-74
2021/01/04 02:11:05;;;;;;;6.35;3.25;;;3.20;66.50;;;;;;5010122;28;82945;-71
2021/01/04 02:13:54;;;;;;;5.40;2.90;;;3.20;66.70;;;;;;5028509;28;81821;-73
2021/01/04 02:16:33;;;;;;;5.32;2.90;;;3.20;66.60;;;;;;5015149;28;80497;-70
2021/01/04 02:19:42;;;;;;;6.55;3.58;;;3.20;66.80;;;;;;5028481;28;80545;-71
2021/01/04 02:22:39;;;;;;;6.22;3.28;;;3.10;66.90;;;;;;4911125;28;80097;-74
2021/01/04 02:25:05;;;;;;;5.53;2.70;;;3.10;67.20;;;;;;4927786;28;80853;-74
2021/01/04 02:27:59;;;;;;;6.80;3.40;;;3.00;67.30;;;;;;4998713;28;80259;-72
2021/01/04 02:30:25;;;;;;;5.03;2.15;;;3.00;67.60;;;;;;5022816;28;80809;-73
2021/01/04 02:32:51;;;;;;;3.88;2.00;;;3.00;67.60;;;;;;4993211;28;80817;-74
2021/01/04 02:35:17;;;;;;;4.15;1.90;;;3.00;67.60;;;;;;5028048;28;80477;-76
2021/01/04 02:37:42;;;;;;;3.45;1.50;;;3.10;67.50;;;;;;5009715;28;80116;-75
2021/01/04 02:40:15;;;;;;;6.60;2.03;;;3.10;67.60;;;;;;5028846;28;80614;-77
2021/01/04 02:42:44;;;;;;;3.80;1.63;;;3.10;67.60;;;;;;5027754;28;80261;-74
2021/01/04 02:45:31;;;;;;;5.95;2.05;;;3.10;67.50;;;;;;5028209;28;80801;-75
2021/01/04 02:48:16;;;;;;;4.93;1.58;;;3.10;67.50;;;;;;5028314;28;80321;-76
2021/01/04 02:50:48;;;;;;;3.55;1.60;;;3.00;67.70;;;;;;5009825;28;80750;-76
2021/01/04 02:53:34;;;;;;;9.48;2.05;;;3.10;67.90;;;;;;5028178;28;80351;-73
2021/01/04 02:56:26;;;;;;;4.25;1.83;;;3.00;67.90;;;;;;5028165;28;80526;-76
2021/01/04 02:59:24;;;;;;;4.13;2.25;;;3.00;67.80;;;;;;5027981;28;80615;-75
2021/01/04 03:02:08;;;;;;;3.13;1.83;;;3.00;67.80;;;;;;5027975;28;80849;-73
2021/01/04 03:04:36;;;;;;;3.88;1.85;;;3.00;67.80;;;;;;5028024;28;80288;-73
2021/01/04 03:07:13;;;;;;;5.68;2.00;;;2.90;67.80;;;;;;5026732;28;80740;-74
2021/01/04 03:09:44;;;;;;;3.08;1.73;;;3.00;67.90;;;;;;5027982;28;80361;-73
2021/01/04 03:12:15;;;;;;;4.45;1.92;;;3.00;67.90;;;;;;5026939;28;81060;-75
2021/01/04 03:14:46;;;;;;;3.28;1.80;;;2.90;67.90;;;;;;5027984;28;80666;-75
2021/01/04 03:17:30;;;;;;;4.13;1.85;;;2.90;68.00;;;;;;5027734;28;79883;-75
2021/01/04 03:19:57;;;;;;;;;;;2.90;68.20;;;;;;5009504;28;81430;-75
2021/01/04 03:22:25;;;;;;;3.08;1.65;;;2.80;67.80;;;;;;5032898;28;75655;-74
2021/01/04 03:24:52;;;;;;;4.55;2.38;;;2.70;68.30;;;;;;5027895;28;79722;-73
2021/01/04 03:27:29;;;;;;;3.90;1.90;;;2.80;68.40;;;;;;5027373;28;80687;-73
2021/01/04 03:29:55;;;;;;;3.33;1.70;;;2.80;68.60;;;;;;5027390;28;80401;-74
2021/01/04 03:32:20;;;;;;;3.75;1.92;;;2.80;68.50;;;;;;5027472;28;80876;-74
2021/01/04 03:34:46;;;;;;;3.50;2.15;;;2.80;68.50;;;;;;5009433;28;83740;-73
2021/01/04 03:37:12;;;;;;;2.75;1.73;;;2.80;68.60;;;;;;5027760;28;80587;-74
2021/01/04 03:39:41;;;;;;;5.00;2.13;;;2.80;68.60;;;;;;5027102;28;80417;-75
2021/01/04 03:42:06;;;;;;;3.53;2.10;;;2.80;68.70;;;;;;5027553;28;80501;-73
2021/01/04 03:44:32;;;;;;;4.30;2.00;;;2.80;68.70;;;;;;5027333;28;80297;-73
2021/01/04 03:46:58;;;;;;;5.72;2.28;;;2.80;68.80;;;;;;5027229;28;80801;-72
2021/01/04 03:49:24;;;;;;;4.82;2.30;;;2.80;68.80;;;;;;5026894;28;81347;-73
2021/01/04 03:51:55;;;;;;;4.82;1.98;;;2.80;68.70;;;;;;5027203;28;82017;-72
2021/01/04 03:54:21;;;;;;;3.95;1.73;;;2.90;68.70;;;;;;5027073;28;79979;-73
2021/01/04 03:56:47;;;;;;;5.60;2.03;;;2.90;68.50;;;;;;5026811;28;80757;-73
2021/01/04 03:59:14;;;;;;;3.67;2.03;;;3.00;68.30;;;;;;5026832;28;79785;-73
2021/01/04 04:01:45;;;;;;;3.85;2.05;;;3.10;68.20;;;;;;5027139;28;80493;-74
2021/01/04 04:04:11;;;;;;;4.15;1.92;;;3.20;68.00;;;;;;5026828;28;80337;-75
2021/01/04 04:06:37;;;;;;;4.90;2.30;;;3.20;67.70;;;;;;5026861;28;81118;-75
2021/01/04 04:09:03;;;;;;;5.43;1.55;;;3.30;67.40;;;;;;5026975;28;80772;-74
2021/01/04 04:11:28;;;;;;;1.98;1.10;;;3.40;66.80;;;;;;5027060;28;80589;-70
2021/01/04 04:13:54;;;;;;;2.83;0.93;;;3.40;66.30;;;;;;5026799;28;80112;-74
2021/01/04 04:16:20;;;;;;;2.30;1.20;;;3.50;65.40;;;;;;5008974;28;82376;-74
2021/01/04 04:18:46;;;;;;;2.00;0.63;;;3.60;64.50;;;;;;5026850;28;80310;-74
2021/01/04 04:21:15;;;;;;;2.35;0.95;;;3.70;63.80;;;;;;5008164;28;81767;-73
2021/01/04 04:23:42;;;;;;;2.08;0.98;;;3.70;63.70;;;;;;5025453;28;80888;-73
2021/01/04 04:26:16;;;;;;;1.80;0.70;;;3.80;63.40;;;;;;5025872;28;82787;-73
2021/01/04 04:28:42;;;;;;;1.70;0.70;;;3.80;63.40;;;;;;5008377;28;80126;-73
2021/01/04 04:31:07;;;;;;;2.03;0.73;;;3.70;63.30;;;;;;5026739;28;80554;-72
2021/01/04 04:33:33;;;;;;;4.13;0.88;;;3.80;63.30;;;;;;5026959;28;79853;-72
2021/01/04 04:35:59;;;;;;;3.00;1.50;;;3.70;63.30;;;;;;5008079;28;81860;-73
2021/01/04 04:38:24;;;;;;;4.53;0.73;;;3.70;63.10;;;;;;5026086;28;82204;-74
2021/01/04 04:40:50;;;;;;;1.92;0.93;;;3.60;63.00;;;;;;5027078;28;80798;-73
2021/01/04 04:43:46;;;;;;;2.33;0.98;;;3.60;62.60;;;;;;5026601;28;79956;-72
2021/01/04 04:46:28;;;;;;;1.60;0.57;;;3.60;62.10;;;;;;5026593;28;80445;-73
2021/01/04 04:48:57;;;;;;;2.50;0.80;;;3.70;61.70;;;;;;5008136;28;80457;-75
2021/01/04 04:51:50;;;;;;;2.00;0.75;;;3.70;61.00;;;;;;5008025;28;80878;-74
2021/01/04 04:54:59;;;;;;;2.45;0.73;;;3.90;60.20;;;;;;5026405;28;79741;-72
2021/01/04 04:57:33;;;;;;;7.82;0.90;;;3.90;59.50;;;;;;4925358;28;81166;-74
2021/01/04 05:00:07;;;;;;;3.30;0.88;;;3.90;59.10;;;;;;4905250;28;82672;-72
2021/01/04 05:02:51;;;;;;;;;;;4.00;58.80;;;;;;4963514;28;80717;-74
2021/01/04 05:05:27;;;;;;;2.70;0.90;;;3.90;58.30;;;;;;5011735;28;79595;-73
2021/01/04 05:08:20;;;;;;;3.38;1.08;;;3.90;58.50;;;;;;5005750;28;80472;-73
2021/01/04 05:10:51;;;;;;;2.65;0.73;;;3.90;57.90;;;;;;5004289;28;80406;-73
2021/01/04 05:13:27;;;;;;;3.40;0.98;;;3.90;58.20;;;;;;5006101;28;81163;-74
2021/01/04 05:16:15;;;;;;;3.63;0.70;;;3.90;58.30;;;;;;5006217;28;80302;-74
2021/01/04 05:18:50;;;;;;;7.30;0.98;;;3.90;58.20;;;;;;5004726;28;80840;-74
2021/01/04 05:21:22;;;;;;;3.80;1.63;;;3.80;58.20;;;;;;4987747;28;80461;-75
2021/01/04 05:24:32;;;;;;;2.45;0.60;;;3.80;57.80;;;;;;4987762;28;80788;-73
2021/01/04 05:27:16;;;;;;;1.63;0.50;;;3.90;57.90;;;;;;4967271;28;79943;-75
2021/01/04 05:29:50;;;;;;;4.57;0.70;;;3.80;57.70;;;;;;5004942;28;80657;-72
2021/01/04 05:32:31;;;;;;;1.52;0.50;;;3.80;57.70;;;;;;5005861;28;80819;-75
2021/01/04 05:35:16;;;;;;;3.92;0.80;;;3.80;57.80;;;;;;5008123;28;80688;-75
2021/01/04 05:37:45;;;;;;;5.40;1.20;;;3.70;57.70;;;;;;5010010;28;79945;-76
2021/01/04 05:40:14;;;;;;;3.80;0.57;;;3.70;57.50;;;;;;5006971;28;80670;-74
2021/01/04 05:43:13;;;;;;;2.05;0.60;;;3.70;57.50;;;;;;4990883;28;81844;-76
2021/01/04 05:46:12;;;;;;;2.33;0.73;;;3.70;57.50;;;;;;5008851;28;81153;-74
2021/01/04 05:48:53;;;;;;;2.88;0.50;;;3.70;57.70;;;;;;5009386;28;80526;-73
2021/01/04 05:51:40;;;;;;;2.65;0.50;;;3.60;57.90;;;;;;5007993;28;80403;-72
2021/01/04 05:54:07;;;;;;;2.85;0.90;;;3.60;57.90;;;;;;5008663;28;80072;-78
2021/01/04 05:56:33;;;;;;;3.03;0.90;;;3.60;58.00;;;;;;4991277;28;80889;-72
2021/01/04 05:59:12;;;;;;;1.52;0.70;;;3.50;58.00;;;;;;5009342;28;80039;-73
2021/01/04 06:01:40;;;;;;;2.90;0.75;;;3.50;58.00;;;;;;5028901;28;80598;-73
2021/01/04 06:04:08;;;;;;;2.17;0.50;;;3.50;57.90;;;;;;5028944;28;79837;-75
2021/01/04 06:06:55;;;;;;;5.55;1.67;;;3.50;57.80;;;;;;5028708;28;80616;-75
2021/01/04 06:09:22;;;;;;;15.07;1.63;;;3.50;57.80;;;;;;5029143;28;80397;-74
2021/01/04 06:11:51;;;;;;;1.98;0.52;;;3.40;57.90;;;;;;5010207;28;80802;-73
2021/01/04 06:14:17;;;;;;;2.35;0.95;;;3.40;57.90;;;;;;5010458;28;80548;-72
2021/01/04 06:16:45;;;;;;;2.45;1.08;;;3.50;57.90;;;;;;5010668;28;80812;-72
2021/01/04 06:19:16;;;;;;;2.85;0.98;;;3.40;58.00;;;;;;5028531;28;80299;-72
2021/01/04 06:21:57;;;;;;;2.33;1.05;;;3.40;58.10;;;;;;5028551;28;80490;-74
2021/01/04 06:24:35;;;;;;;3.58;1.15;;;3.40;58.10;;;;;;5028169;28;80136;-73
2021/01/04 06:27:13;;;;;;;8.00;1.35;;;3.40;58.20;;;;;;5028431;28;80607;-72
2021/01/04 06:29:49;;;;;;;3.22;1.30;;;3.40;58.20;;;;;;5028504;28;80113;-76
2021/01/04 06:32:28;;;;;;;3.05;1.23;;;3.40;58.20;;;;;;5028065;28;82210;-72
2021/01/04 06:35:09;;;;;;;4.10;1.25;;;3.40;58.10;;;;;;5028734;28;80402;-71
2021/01/04 06:37:35;;;;;;;4.38;1.30;;;3.30;58.10;;;;;;5008191;28;83193;-74
2021/01/04 06:40:09;;;;;;;4.07;1.50;;;3.30;58.10;;;;;;5010088;28;80077;-72
2021/01/04 06:42:42;;;;;;;6.07;1.33;;;3.40;58.00;;;;;;5009872;28;80736;-72
2021/01/04 06:45:37;;;;;;;5.78;1.05;;;3.40;58.00;;;;;;5027470;28;80173;-75
2021/01/04 06:48:31;;;;;;;2.00;0.77;;;3.40;57.90;;;;;;5028240;28;80409;-74
2021/01/04 06:51:05;;;;;;;5.05;0.90;;;3.30;58.10;;;;;;5028069;28;80715;-74
2021/01/04 06:53:47;;;;;;;2.28;0.90;;;3.30;58.20;;;;;;5028479;28;79793;-73
2021/01/04 06:56:35;;;;;;;4.95;1.23;;;3.30;58.30;;;;;;5027904;28;80889;-72
2021/01/04 06:59:22;;;;;;;3.28;1.08;;;3.30;58.40;;;;;;5027308;28;80095;-71
2021/01/04 07:01:54;;;;;;;4.43;1.40;;;3.30;58.50;;;;;;5027660;28;80390;-74
2021/01/04 07:04:29;;;;;;;5.20;1.70;;;3.20;58.60;;;;;;5009705;28;81004;-75
2021/01/04 07:07:21;;;;;;;2.58;1.08;;;3.20;58.90;;;;;;5027655;28;79739;-72
2021/01/04 07:10:05;;;;;;;6.78;1.38;;;3.10;59.40;;;;;;5027825;28;80792;-72
2021/01/04 07:13:02;;;;;;;4.85;2.03;;;3.10;59.60;;;;;;5009678;28;80526;-74
2021/01/04 07:15:29;;;;;;;3.95;1.25;;;3.10;59.70;;;;;;5028092;28;79858;-73
2021/01/04 07:17:54;;;;;;;2.78;1.42;;;3.00;59.90;;;;;;5009140;28;81764;-73
2021/01/04 07:21:01;;;;;;;5.05;1.80;;;2.90;60.00;;;;;;5027745;28;80923;-71
2021/01/04 07:23:46;;;;;;;4.70;1.83;;;3.00;60.10;;;;;;4926301;28;80184;-71
2021/01/04 07:26:20;;;;;;;5.80;2.05;;;2.90;60.30;;;;;;4927015;28;81284;-71
2021/01/04 07:29:14;;;;;;;6.55;1.67;;;2.90;60.50;;;;;;4991145;28;80054;-73
2021/01/04 07:31:58;;;;;;;5.35;1.98;;;2.90;60.80;;;;;;5027579;28;81046;-74
2021/01/04 07:35:05;;;;;;;9.18;1.85;;;2.90;61.10;;;;;;5026934;28;80403;-74
2021/01/04 07:37:44;;;;;;;6.50;1.98;;;2.90;61.20;;;;;;5026797;28;81449;-73
2021/01/04 07:40:34;;;;;;;5.70;1.90;;;2.90;61.40;;;;;;5027171;28;79757;-72
2021/01/04 07:43:22;;;;;;;5.82;2.38;;;2.80;61.40;;;;;;5027208;28;81340;-74
2021/01/04 07:46:13;;;;;;;4.38;2.15;;;2.80;61.70;;;;;;5008929;28;79768;-73
2021/01/04 07:49:08;;;;;;;8.20;2.80;;;2.80;61.80;;;;;;5026866;28;81182;-72
2021/01/04 07:51:44;;;;;;;6.40;2.08;;;2.80;61.80;;;;;;4921416;28;79883;-74
2021/01/04 07:54:13;;;;;;;5.68;1.95;;;2.80;62.00;;;;;;5027270;28;81051;-72
2021/01/04 07:57:09;;;;;;;5.57;2.10;;;2.80;62.20;;;;;;5008656;28;80597;-73
2021/01/04 07:59:59;;;;;;;6.60;2.95;;;2.80;62.30;;;;;;5007925;28;80974;-74
2021/01/04 08:02:28;;;;;;;5.35;1.80;;;2.80;62.40;;;;;;5026522;28;81321;-76
2021/01/04 08:05:06;;;;;;;5.90;2.67;;;2.80;62.00;;;;;;5026909;28;81152;-69
2021/01/04 08:07:41;;;;;;;3.22;1.70;;;2.90;61.60;;;;;;5027042;28;79715;-67
2021/01/04 08:10:37;;;;;;;8.10;1.90;;;2.90;61.30;;;;;;5026973;28;80752;-73
2021/01/04 08:13:40;;;;;;;3.83;1.60;;;3.00;61.00;;;;;;5027041;28;80050;-64
2021/01/04 08:16:10;;;;;;;5.05;1.63;;;3.10;60.50;;;;;;5008420;28;81264;-70
2021/01/04 08:18:36;;;;;;;4.82;1.50;;;3.20;60.10;;;;;;5026810;28;80331;-67
2021/01/04 08:21:21;;;;;;;6.18;1.35;;;3.20;59.70;;;;;;5026577;28;80592;-73
2021/01/04 08:24:18;;;;;;;4.50;1.65;;;3.30;59.40;;;;;;5026875;28;80216;-68
2021/01/04 08:26:49;;;;;;;6.95;2.88;;;3.40;59.10;;;;;;5026904;28;80755;-76
2021/01/04 08:29:30;;;;;;;10.15;2.60;;;3.40;59.10;;;;;;5026540;28;80254;-77
2021/01/04 08:32:32;;;;;;;7.90;2.63;;;3.40;58.80;;;;;;5027170;28;79742;-77
2021/01/04 08:35:28;;;;;;;5.78;1.50;;;3.50;58.70;;;;;;4973738;28;81398;-73
2021/01/04 08:38:00;;;;;;;10.70;1.60;;;3.60;58.10;;;;;;5025841;28;81048;-80
2021/01/04 08:40:27;;;;;;;5.40;1.30;;;3.80;57.60;;;;;;5026328;28;80152;-82
2021/01/04 08:43:08;;;;;;;5.50;1.58;;;3.90;56.90;;;;;;5026770;28;79745;-77
2021/01/04 08:45:45;;;;;;;4.93;1.50;;;4.10;56.40;;;;;;5026330;28;80113;-75
2021/01/04 08:48:20;;;;;;;4.53;1.60;;;4.20;55.80;;;;;;5008111;28;83235;-82
2021/01/04 08:51:01;;;;;;;15.38;1.92;;;4.30;55.60;;;;;;5023106;28;80223;-82
2021/01/04 08:53:27;;;;;;;3.60;1.17;;;4.40;55.20;;;;;;5026228;28;80656;-68
2021/01/04 08:56:18;;;;;;;2.42;1.23;;;4.50;55.00;;;;;;5025756;28;80137;-70
2021/01/04 08:58:45;;;;;;;7.22;1.45;;;4.60;54.50;;;;;;5026102;28;80628;-73
2021/01/04 09:01:58;;;;;;;3.33;1.30;;;4.60;54.40;;;;;;5025483;28;80161;-70
2021/01/04 09:04:42;;;;;;;3.42;1.33;;;4.70;54.50;;;;;;5025176;28;80521;-68
2021/01/04 09:07:21;;;;;;;4.50;1.35;;;4.90;53.80;;;;;;5025722;28;80214;-70
2021/01/04 09:09:52;;;;;;;3.08;1.38;;;5.00;53.60;;;;;;5027878;28;81292;-69
2021/01/04 09:12:25;;;;;;;11.13;1.42;;;5.10;53.30;;;;;;5029349;28;80157;-66
2021/01/04 09:14:57;;;;;;;;;;;5.10;53.20;;;;;;5030160;28;80727;-74
2021/01/04 09:17:31;;;;;;;2.47;1.08;;;5.30;52.20;;;;;;5016174;28;82417;-66
2021/01/04 09:20:13;;;;;;;6.15;1.63;;;5.40;52.30;;;;;;5029559;28;79789;-70
2021/01/04 09:22:39;;;;;;;5.35;1.38;;;5.50;52.30;;;;;;5029716;28;79658;-64
2021/01/04 09:25:29;;;;;;;3.55;1.05;;;5.70;52.30;;;;;;5029032;28;80566;-69
2021/01/04 09:27:55;;;;;;;2.60;1.13;;;6.00;51.50;;;;;;5028902;28;80729;-68
2021/01/04 09:30:27;;;;;;;3.03;1.15;;;6.20;50.00;;;;;;5028907;28;81136;-66
2021/01/04 09:33:04;;;;;;;3.42;1.00;;;6.60;49.40;;;;;;5010853;28;79592;-67
2021/01/04 09:35:30;;;;;;;3.40;1.40;;;6.80;48.60;;;;;;5029292;28;80403;-71
2021/01/04 09:38:25;;;;;;;3.30;1.23;;;7.10;48.00;;;;;;5028585;28;80201;-68
2021/01/04 09:41:05;;;;;;;7.20;1.50;;;7.50;46.60;;;;;;5007909;28;80821;-65
2021/01/04 09:43:34;;;;;;;3.42;1.02;;;8.10;45.30;;;;;;5028902;28;80232;-69
2021/01/04 09:46:49;;;;;;;14.02;1.67;;;8.60;43.80;;;;;;5028396;28;80542;-69
2021/01/04 09:49:22;;;;;;;2.65;0.90;;;8.40;43.30;;;;;;4985523;28;80201;-70
2021/01/04 09:51:54;;;;;;;2.25;1.02;;;7.90;44.60;;;;;;5028579;28;80606;-65
2021/01/04 09:54:27;;;;;;;5.78;1.13;;;7.60;45.10;;;;;;5028946;28;80032;-66
2021/01/04 09:57:03;;;;;;;5.80;1.67;;;7.30;45.90;;;;;;5028089;28;81789;-66
2021/01/04 09:59:29;;;;;;;4.68;0.93;;;7.30;46.40;;;;;;5028101;28;80215;-67
2021/01/04 10:01:59;;;;;;;4.22;1.10;;;8.40;44.30;;;;;;5028491;28;81071;-67
2021/01/04 10:04:32;;;;;;;4.85;1.38;;;9.20;42.00;;;;;;5028233;28;80742;-68
2021/01/04 10:07:03;;;;;;;5.75;1.40;;;9.40;41.90;;;;;;5009816;28;82585;-68
2021/01/04 10:09:37;;;;;;;4.00;1.38;;;9.40;42.40;;;;;;5028625;28;80222;-65
2021/01/04 10:12:06;;;;;;;2.65;1.35;;;9.90;41.00;;;;;;5028505;28;80379;-66
2021/01/04 10:14:32;;;;;;;3.38;1.02;;;10.30;40.60;;;;;;5028560;28;80100;-66
2021/01/04 10:17:01;;;;;;;6.55;1.35;;;10.90;38.90;;;;;;5028126;28;79810;-62
2021/01/04 10:19:54;;;;;;;2.92;1.00;;;11.60;37.50;;;;;;5028599;28;80140;-63
2021/01/04 10:22:32;;;;;;;5.55;1.10;;;12.00;37.20;;;;;;5017588;28;81219;-66
2021/01/04 10:25:16;;;;;;;2.90;0.90;;;12.90;35.50;;;;;;5028210;28;80334;-65
2021/01/04 10:27:42;;;;;;;;;;;12.70;34.70;;;;;;5028726;28;80565;-67
2021/01/04 10:30:09;;;;;;;3.50;1.15;;;12.60;35.40;;;;;;5033236;28;80832;-67
2021/01/04 10:32:38;;;;;;;4.18;1.10;;;13.40;34.30;;;;;;5028339;28;79616;-67
2021/01/04 10:35:05;;;;;;;2.85;0.85;;;14.10;33.00;;;;;;5028231;28;80635;-63
2021/01/04 10:37:53;;;;;;;2.08;0.80;;;14.80;32.10;;;;;;5028031;28;80498;-66
2021/01/04 10:40:22;;;;;;;2.70;0.90;;;15.70;30.90;;;;;;5028248;28;80057;-66
2021/01/04 10:43:01;;;;;;;2.00;0.93;;;16.50;29.50;;;;;;5027923;28;80643;-67
2021/01/04 10:45:39;;;;;;;2.92;1.15;;;17.00;28.70;;;;;;5027476;28;80188;-63
2021/01/04 10:48:10;;;;;;;6.32;1.45;;;17.50;28.20;;;;;;5028019;28;80493;-64
2021/01/04 10:50:43;;;;;;;2.58;0.85;;;18.40;27.10;;;;;;5027897;28;79909;-63
2021/01/04 10:53:24;;;;;;;2.63;0.77;;;18.40;26.60;;;;;;5027946;28;80964;-62
2021/01/04 10:56:14;;;;;;;2.60;0.88;;;17.70;27.30;;;;;;5027502;28;81854;-63
2021/01/04 10:59:08;;;;;;;8.00;1.33;;;16.00;29.00;;;;;;5009415;28;80608;-63
2021/01/04 11:01:36;;;;;;;;;;;16.40;29.10;;;;;;5009298;28;81626;-68
2021/01/04 11:04:11;;;;;;;3.22;0.38;;;17.50;27.20;;;;;;5033017;28;74840;-63
2021/01/04 11:06:42;;;;;;;2.28;0.57;;;17.00;27.40;;;;;;5028044;28;79895;-64
2021/01/04 11:09:20;;;;;;;2.15;0.50;;;17.80;27.00;;;;;;5027185;28;80557;-64
2021/01/04 11:11:51;;;;;;;2.08;0.70;;;19.50;25.30;;;;;;5027512;28;80238;-64
2021/01/04 11:14:16;;;;;;;4.43;0.85;;;19.50;24.70;;;;;;5027117;28;80385;-70
2021/01/04 11:16:48;;;;;;;1.75;0.40;;;18.60;25.50;;;;;;5027514;28;80307;-64
2021/01/04 11:19:26;;;;;;;1.63;0.40;;;18.20;26.10;;;;;;5027158;28;81120;-64
2021/01/04 11:21:52;;;;;;;5.90;0.70;;;18.00;26.00;;;;;;5027649;28;79972;-63
2021/01/04 11:24:17;;;;;;;1.67;0.50;;;16.80;27.10;;;;;;5027517;28;80753;-63
2021/01/04 11:26:43;;;;;;;1.10;0.40;;;16.60;27.20;;;;;;5026963;28;79892;-63
2021/01/04 11:29:09;;;;;;;3.45;0.40;;;15.40;28.30;;;;;;5008151;28;82865;-66
2021/01/04 11:31:36;;;;;;;3.30;0.45;;;14.90;29.40;;;;;;5026503;28;80794;-68
2021/01/04 11:34:03;;;;;;;6.65;1.63;;;16.80;27.10;;;;;;5027269;28;80603;-64
2021/01/04 11:36:28;;;;;;;6.20;0.95;;;15.50;28.50;;;;;;5027442;28;79729;-69
2021/01/04 11:38:54;;;;;;;1.27;0.30;;;15.90;28.40;;;;;;5027386;28;80483;-69
2021/01/04 11:41:20;;;;;;;4.57;0.80;;;17.20;26.80;;;;;;5027548;28;80395;-66
2021/01/04 11:43:47;;;;;;;2.72;1.10;;;18.40;25.60;;;;;;5026877;28;80669;-65
2021/01/04 11:46:15;;;;;;;1.25;0.47;;;19.30;24.80;;;;;;5027051;28;80005;-68
2021/01/04 11:48:41;;;;;;;1.40;0.40;;;19.60;24.50;;;;;;5027004;28;80402;-65
2021/01/04 11:51:07;;;;;;;2.80;1.00;;;20.00;23.80;;;;;;5027369;28;80330;-72
2021/01/04 11:53:33;;;;;;;3.20;0.82;;;20.00;24.00;;;;;;5026914;28;80009;-74
2021/01/04 11:56:01;;;;;;;2.10;0.73;;;19.90;24.30;;;;;;5027303;28;80339;-73
2021/01/04 11:58:27;;;;;;;1.42;0.50;;;20.00;24.60;;;;;;5008601;28;83452;-67
2021/01/04 12:00:53;;;;;;;3.72;1.02;;;21.00;23.90;;;;;;5026692;28;80936;-68
2021/01/04 12:03:19;;;;;;;5.40;0.98;;;22.30;22.90;;;;;;5027375;28;80532;-73
2021/01/04 12:05:45;;;;;;;2.13;1.17;;;23.20;22.20;;;;;;5026982;28;79761;-65
2021/01/04 12:08:11;;;;;;;4.13;1.40;;;23.00;22.40;;;;;;5026634;28;80588;-70
2021/01/04 12:10:37;;;;;;;4.28;1.45;;;21.60;23.90;;;;;;5026133;28;80158;-70
2021/01/04 12:13:06;;;;;;;5.55;1.92;;;22.00;23.60;;;;;;5026444;28;80273;-68
2021/01/04 12:15:32;;;;;;;4.68;1.63;;;19.80;25.70;;;;;;5027167;28;80234;-73
2021/01/04 12:17:58;;;;;;;5.25;1.98;;;19.30;26.70;;;;;;5026832;28;80474;-75
2021/01/04 12:20:24;;;;;;;4.60;1.92;;;21.50;24.50;;;;;;5026534;28;80316;-67
2021/01/04 12:22:49;;;;;;;4.30;1.95;;;23.30;22.70;;;;;;5026160;28;80456;-66
2021/01/04 12:25:15;;;;;;;4.63;1.70;;;23.50;22.60;;;;;;5026295;28;81488;-64
2021/01/04 12:27:42;;;;;;;3.70;2.10;;;21.50;24.10;;;;;;5027053;28;79831;-67
2021/01/04 12:30:09;;;;;;;3.90;1.95;;;20.80;25.10;;;;;;5026393;28;80723;-65
2021/01/04 12:32:35;;;;;;;3.80;1.20;;;21.60;24.30;;;;;;5026637;28;79830;-73
2021/01/04 12:35:01;;;;;;;3.95;1.00;;;19.80;25.50;;;;;;5008191;28;82850;-69
2021/01/04 12:37:27;;;;;;;3.72;1.30;;;19.40;25.40;;;;;;5026304;28;80969;-67
2021/01/04 12:39:52;;;;;;;2.05;1.13;;;19.50;25.30;;;;;;5025984;28;82039;-74
2021/01/04 12:42:18;;;;;;;2.95;1.20;;;17.30;27.60;;;;;;5026360;28;80554;-71
2021/01/04 12:44:47;;;;;;;3.83;1.20;;;14.90;30.40;;;;;;5006765;28;80787;-70
2021/01/04 12:47:12;;;;;;;2.85;1.00;;;13.40;32.90;;;;;;5026268;28;80939;-66
2021/01/04 12:49:38;;;;;;;3.63;1.10;;;12.60;34.10;;;;;;5026531;28;80067;-70
2021/01/04 12:52:04;;;;;;;3.97;1.38;;;12.10;35.10;;;;;;5026205;28;79943;-68
2021/01/04 12:54:34;;;;;;;2.65;1.23;;;12.00;35.50;;;;;;5026713;28;79682;-70
2021/01/04 12:57:04;;;;;;;2.55;1.20;;;11.60;36.10;;;;;;5026153;28;79911;-66
2021/01/04 12:59:36;;;;;;;3.00;1.35;;;12.10;35.60;;;;;;5025988;28;80833;-64
2021/01/04 13:02:02;;;;;;;2.00;0.97;;;11.70;36.10;;;;;;5026127;28;80578;-67
2021/01/04 13:04:28;;;;;;;6.75;1.00;;;12.00;35.40;;;;;;5007570;28;82831;-73
2021/01/04 13:06:56;;;;;;;2.20;0.95;;;11.70;35.70;;;;;;5025838;28;80646;-71
2021/01/04 13:09:22;;;;;;;3.50;1.10;;;11.40;36.00;;;;;;5025980;28;80098;-69
2021/01/04 13:11:52;;;;;;;2.30;0.95;;;11.30;36.20;;;;;;5025557;28;81552;-65
2021/01/04 13:14:19;;;;;;;5.22;1.05;;;11.10;36.40;;;;;;5025519;28;80727;-67
2021/01/04 13:16:45;;;;;;;5.13;0.80;;;10.80;37.00;;;;;;5026215;28;80998;-68
2021/01/04 13:19:12;;;;;;;3.20;0.57;;;10.50;37.40;;;;;;5026113;28;81501;-66
2021/01/04 13:21:38;;;;;;;3.33;1.08;;;10.40;37.70;;;;;;5025694;28;80667;-68
2021/01/04 13:24:09;;;;;;;1.40;0.70;;;10.20;38.10;;;;;;5026107;28;79961;-64
2021/01/04 13:26:43;;;;;;;2.50;0.60;;;10.20;38.40;;;;;;5026165;28;81191;-67
2021/01/04 13:29:11;;;;;;;2.58;0.40;;;10.90;37.10;;;;;;5025716;28;80301;-65
2021/01/04 13:31:36;;;;;;;2.40;0.80;;;11.90;35.30;;;;;;5025687;28;79749;-68
2021/01/04 13:34:03;;;;;;;1.67;0.68;;;12.20;34.70;;;;;;5025600;28;80256;-65
2021/01/04 13:36:29;;;;;;;1.90;0.80;;;13.40;33.10;;;;;;5024699;28;79758;-67
2021/01/04 13:38:55;;;;;;;3.38;0.80;;;12.90;33.40;;;;;;5025801;28;80326;-69
2021/01/04 13:41:20;;;;;;;2.42;0.43;;;12.60;33.80;;;;;;5026104;28;81132;-64